sensor_id;sensor_type;location;lat;lon;timestamp;P1;durP1;ratioP1;P2;durP2;ratioP2
2698;SDS011;1359;51.798;12.174;2023-05-16T00:01:23;16.13;;;14.10;;
2698;SDS011;1359;51.798;12.174;2023-05-16T00:03:51;16.00;;;14.40;;
2698;SDS011;1359;51.798;12.174;2023-05-16T00:06:16;15.93;;;14.30;;
2698;SDS011;1359;51.798;12.174;2023-05-16T00:08:42;15.53;;;14.03;;
2698;SDS011;1359;51.798;12.174;2023-05-16T00:11:07;17.73;;;14.60;;
2698;SDS011;1359;51.798;12.174;2023-05-16T00:13:32;15.97;;;14.37;;
2698;SDS011;1359;51.798;12.174;2023-05-16T00:15:58;16.33;;;14.20;;
2698;SDS011;1359;51.798;12.174;2023-05-16T00:18:26;16.83;;;13.13;;
2698;SDS011;1359;51.798;12.174;2023-05-16T00:20:52;16.80;;;13.30;;
2698;SDS011;1359;51.798;12.174;2023-05-16T00:23:18;14.80;;;13.30;;
2698;SDS011;1359;51.798;12.174;2023-05-16T00:25:44;13.40;;;12.10;;
2698;SDS011;1359;51.798;12.174;2023-05-16T00:28:11;15.47;;;13.87;;
2698;SDS011;1359;51.798;12.174;2023-05-16T00:30:36;15.27;;;13.70;;
2698;SDS011;1359;51.798;12.174;2023-05-16T00:33:01;15.00;;;13.40;;
2698;SDS011;1359;51.798;12.174;2023-05-16T00:35:28;15.07;;;11.97;;
2698;SDS011;1359;51.798;12.174;2023-05-16T00:37:53;15.07;;;13.57;;
2698;SDS011;1359;51.798;12.174;2023-05-16T00:40:20;16.83;;;14.10;;
2698;SDS011;1359;51.798;12.174;2023-05-16T00:42:45;13.00;;;11.70;;
2698;SDS011;1359;51.798;12.174;2023-05-16T00:45:11;21.80;;;13.30;;
2698;SDS011;1359;51.798;12.174;2023-05-16T00:47:36;15.70;;;12.40;;
2698;SDS011;1359;51.798;12.174;2023-05-16T00:50:02;18.17;;;14.83;;
2698;SDS011;1359;51.798;12.174;2023-05-16T00:52:28;15.93;;;13.10;;
2698;SDS011;1359;51.798;12.174;2023-05-16T00:54:53;11.97;;;10.70;;
2698;SDS011;1359;51.798;12.174;2023-05-16T00:57:19;17.30;;;12.67;;
2698;SDS011;1359;51.798;12.174;2023-05-16T00:59:45;13.47;;;12.00;;
2698;SDS011;1359;51.798;12.174;2023-05-16T01:02:11;12.80;;;11.30;;
2698;SDS011;1359;51.798;12.174;2023-05-16T01:04:37;10.63;;;9.53;;
2698;SDS011;1359;51.798;12.174;2023-05-16T01:07:03;12.50;;;11.30;;
2698;SDS011;1359;51.798;12.174;2023-05-16T01:09:28;12.43;;;11.13;;
2698;SDS011;1359;51.798;12.174;2023-05-16T01:11:56;11.63;;;10.60;;
2698;SDS011;1359;51.798;12.174;2023-05-16T01:20:01;12.50;;;10.87;;
2698;SDS011;1359;51.798;12.174;2023-05-16T01:25:12;14.60;;;11.00;;
2698;SDS011;1359;51.798;12.174;2023-05-16T01:27:41;13.27;;;11.87;;
2698;SDS011;1359;51.798;12.174;2023-05-16T01:30:12;23.07;;;13.00;;
2698;SDS011;1359;51.798;12.174;2023-05-16T01:32:37;16.73;;;14.10;;
2698;SDS011;1359;51.798;12.174;2023-05-16T01:35:02;21.07;;;14.03;;
2698;SDS011;1359;51.798;12.174;2023-05-16T01:37:32;24.57;;;14.30;;
2698;SDS011;1359;51.798;12.174;2023-05-16T01:40:03;19.67;;;16.07;;
2698;SDS011;1359;51.798;12.174;2023-05-16T01:42:33;16.77;;;14.93;;
2698;SDS011;1359;51.798;12.174;2023-05-16T01:45:07;19.73;;;14.60;;
2698;SDS011;1359;51.798;12.174;2023-05-16T01:47:35;15.77;;;13.57;;
2698;SDS011;1359;51.798;12.174;2023-05-16T01:50:07;17.07;;;14.53;;
2698;SDS011;1359;51.798;12.174;2023-05-16T01:52:35;20.63;;;15.37;;
2698;SDS011;1359;51.798;12.174;2023-05-16T01:55:02;18.37;;;16.43;;
2698;SDS011;1359;51.798;12.174;2023-05-16T01:57:28;18.77;;;15.07;;
2698;SDS011;1359;51.798;12.174;2023-05-16T01:59:56;16.67;;;14.80;;
2698;SDS011;1359;51.798;12.174;2023-05-16T02:02:21;16.70;;;14.97;;
2698;SDS011;1359;51.798;12.174;2023-05-16T02:04:47;16.07;;;13.13;;
2698;SDS011;1359;51.798;12.174;2023-05-16T02:07:14;17.83;;;12.87;;
2698;SDS011;1359;51.798;12.174;2023-05-16T02:09:39;18.43;;;13.67;;
2698;SDS011;1359;51.798;12.174;2023-05-16T02:12:06;14.83;;;13.03;;
2698;SDS011;1359;51.798;12.174;2023-05-16T02:14:31;13.00;;;11.57;;
2698;SDS011;1359;51.798;12.174;2023-05-16T02:16:56;14.00;;;11.03;;
2698;SDS011;1359;51.798;12.174;2023-05-16T02:19:22;15.20;;;11.83;;
2698;SDS011;1359;51.798;12.174;2023-05-16T02:21:47;14.73;;;11.10;;
2698;SDS011;1359;51.798;12.174;2023-05-16T02:24:13;13.80;;;10.60;;
2698;SDS011;1359;51.798;12.174;2023-05-16T02:26:38;14.10;;;11.50;;
2698;SDS011;1359;51.798;12.174;2023-05-16T02:29:04;14.23;;;11.30;;
2698;SDS011;1359;51.798;12.174;2023-05-16T02:31:30;13.57;;;11.13;;
2698;SDS011;1359;51.798;12.174;2023-05-16T02:33:56;11.40;;;10.13;;
2698;SDS011;1359;51.798;12.174;2023-05-16T02:36:22;11.97;;;10.33;;
2698;SDS011;1359;51.798;12.174;2023-05-16T02:38:47;14.40;;;12.03;;
2698;SDS011;1359;51.798;12.174;2023-05-16T02:41:13;12.50;;;9.93;;
2698;SDS011;1359;51.798;12.174;2023-05-16T02:43:38;15.07;;;10.30;;
2698;SDS011;1359;51.798;12.174;2023-05-16T02:46:03;11.50;;;10.27;;
2698;SDS011;1359;51.798;12.174;2023-05-16T02:48:29;16.23;;;10.50;;
2698;SDS011;1359;51.798;12.174;2023-05-16T02:50:57;14.40;;;10.60;;
2698;SDS011;1359;51.798;12.174;2023-05-16T02:53:22;14.33;;;10.93;;
2698;SDS011;1359;51.798;12.174;2023-05-16T02:55:48;16.30;;;10.97;;
2698;SDS011;1359;51.798;12.174;2023-05-16T02:58:13;12.37;;;10.80;;
2698;SDS011;1359;51.798;12.174;2023-05-16T03:00:38;12.77;;;9.20;;
2698;SDS011;1359;51.798;12.174;2023-05-16T03:03:04;15.10;;;10.13;;
2698;SDS011;1359;51.798;12.174;2023-05-16T03:05:29;12.90;;;10.03;;
2698;SDS011;1359;51.798;12.174;2023-05-16T03:07:56;10.67;;;9.57;;
2698;SDS011;1359;51.798;12.174;2023-05-16T03:10:21;13.60;;;9.27;;
2698;SDS011;1359;51.798;12.174;2023-05-16T03:12:47;10.57;;;9.47;;
2698;SDS011;1359;51.798;12.174;2023-05-16T03:15:12;13.37;;;10.23;;
2698;SDS011;1359;51.798;12.174;2023-05-16T03:17:37;12.97;;;10.77;;
2698;SDS011;1359;51.798;12.174;2023-05-16T03:20:03;9.93;;;8.87;;
2698;SDS011;1359;51.798;12.174;2023-05-16T03:22:29;10.57;;;9.13;;
2698;SDS011;1359;51.798;12.174;2023-05-16T03:24:54;12.37;;;10.43;;
2698;SDS011;1359;51.798;12.174;2023-05-16T03:27:21;12.67;;;10.00;;
2698;SDS011;1359;51.798;12.174;2023-05-16T03:29:48;9.80;;;8.80;;
2698;SDS011;1359;51.798;12.174;2023-05-16T03:32:13;11.90;;;10.47;;
2698;SDS011;1359;51.798;12.174;2023-05-16T03:34:39;12.73;;;9.63;;
2698;SDS011;1359;51.798;12.174;2023-05-16T03:37:05;12.27;;;9.43;;
2698;SDS011;1359;51.798;12.174;2023-05-16T03:39:31;10.70;;;8.67;;
2698;SDS011;1359;51.798;12.174;2023-05-16T03:41:56;11.93;;;9.97;;
2698;SDS011;1359;51.798;12.174;2023-05-16T03:44:21;10.13;;;8.60;;
2698;SDS011;1359;51.798;12.174;2023-05-16T03:46:47;10.13;;;8.90;;
2698;SDS011;1359;51.798;12.174;2023-05-16T03:49:12;13.10;;;9.03;;
2698;SDS011;1359;51.798;12.174;2023-05-16T03:51:37;14.03;;;8.57;;
2698;SDS011;1359;51.798;12.174;2023-05-16T03:54:03;14.70;;;8.20;;
2698;SDS011;1359;51.798;12.174;2023-05-16T03:56:28;9.73;;;8.37;;
2698;SDS011;1359;51.798;12.174;2023-05-16T03:58:53;14.87;;;9.23;;
2698;SDS011;1359;51.798;12.174;2023-05-16T04:01:19;9.97;;;7.83;;
2698;SDS011;1359;51.798;12.174;2023-05-16T04:03:44;12.23;;;7.90;;
2698;SDS011;1359;51.798;12.174;2023-05-16T04:06:10;10.70;;;7.60;;
2698;SDS011;1359;51.798;12.174;2023-05-16T04:08:35;10.40;;;7.77;;
2698;SDS011;1359;51.798;12.174;2023-05-16T04:11:00;8.17;;;7.30;;
2698;SDS011;1359;51.798;12.174;2023-05-16T04:13:26;8.10;;;6.73;;
2698;SDS011;1359;51.798;12.174;2023-05-16T04:15:51;14.77;;;7.30;;
2698;SDS011;1359;51.798;12.174;2023-05-16T04:18:16;7.30;;;6.60;;
2698;SDS011;1359;51.798;12.174;2023-05-16T04:20:42;9.63;;;7.37;;
2698;SDS011;1359;51.798;12.174;2023-05-16T04:23:08;7.77;;;6.30;;
2698;SDS011;1359;51.798;12.174;2023-05-16T04:25:35;7.93;;;7.13;;
2698;SDS011;1359;51.798;12.174;2023-05-16T04:28:00;6.20;;;5.63;;
2698;SDS011;1359;51.798;12.174;2023-05-16T04:30:26;10.30;;;6.20;;
2698;SDS011;1359;51.798;12.174;2023-05-16T04:32:51;6.17;;;5.57;;
2698;SDS011;1359;51.798;12.174;2023-05-16T04:35:16;8.40;;;5.53;;
2698;SDS011;1359;51.798;12.174;2023-05-16T04:37:42;6.00;;;5.50;;
2698;SDS011;1359;51.798;12.174;2023-05-16T04:40:08;9.03;;;6.13;;
2698;SDS011;1359;51.798;12.174;2023-05-16T04:42:34;7.03;;;5.77;;
2698;SDS011;1359;51.798;12.174;2023-05-16T04:44:59;6.27;;;4.80;;
2698;SDS011;1359;51.798;12.174;2023-05-16T04:47:25;7.90;;;6.00;;
2698;SDS011;1359;51.798;12.174;2023-05-16T04:49:50;5.77;;;5.00;;
2698;SDS011;1359;51.798;12.174;2023-05-16T04:52:16;6.57;;;5.30;;
2698;SDS011;1359;51.798;12.174;2023-05-16T04:54:41;9.50;;;5.40;;
2698;SDS011;1359;51.798;12.174;2023-05-16T04:57:06;6.67;;;5.03;;
2698;SDS011;1359;51.798;12.174;2023-05-16T04:59:32;5.90;;;5.27;;
2698;SDS011;1359;51.798;12.174;2023-05-16T05:01:57;9.63;;;4.83;;
2698;SDS011;1359;51.798;12.174;2023-05-16T05:04:23;4.40;;;4.10;;
2698;SDS011;1359;51.798;12.174;2023-05-16T05:06:48;5.90;;;5.30;;
2698;SDS011;1359;51.798;12.174;2023-05-16T05:09:14;6.10;;;4.27;;
2698;SDS011;1359;51.798;12.174;2023-05-16T05:11:40;5.43;;;4.93;;
2698;SDS011;1359;51.798;12.174;2023-05-16T05:14:05;6.23;;;5.03;;
2698;SDS011;1359;51.798;12.174;2023-05-16T05:16:30;5.13;;;4.53;;
2698;SDS011;1359;51.798;12.174;2023-05-16T05:18:56;5.10;;;4.00;;
2698;SDS011;1359;51.798;12.174;2023-05-16T05:21:22;7.80;;;4.60;;
2698;SDS011;1359;51.798;12.174;2023-05-16T05:23:49;8.63;;;4.70;;
2698;SDS011;1359;51.798;12.174;2023-05-16T05:26:15;4.93;;;4.43;;
2698;SDS011;1359;51.798;12.174;2023-05-16T05:28:40;5.40;;;4.93;;
2698;SDS011;1359;51.798;12.174;2023-05-16T05:31:05;6.23;;;5.57;;
2698;SDS011;1359;51.798;12.174;2023-05-16T05:33:32;4.77;;;4.30;;
2698;SDS011;1359;51.798;12.174;2023-05-16T05:35:57;5.83;;;5.33;;
2698;SDS011;1359;51.798;12.174;2023-05-16T05:38:23;4.67;;;4.17;;
2698;SDS011;1359;51.798;12.174;2023-05-16T05:40:48;5.20;;;4.70;;
2698;SDS011;1359;51.798;12.174;2023-05-16T05:43:14;5.40;;;4.20;;
2698;SDS011;1359;51.798;12.174;2023-05-16T05:45:39;6.93;;;4.40;;
2698;SDS011;1359;51.798;12.174;2023-05-16T05:48:05;5.60;;;4.40;;
2698;SDS011;1359;51.798;12.174;2023-05-16T05:50:30;7.30;;;4.80;;
2698;SDS011;1359;51.798;12.174;2023-05-16T05:52:56;8.23;;;4.07;;
2698;SDS011;1359;51.798;12.174;2023-05-16T05:55:21;5.20;;;4.80;;
2698;SDS011;1359;51.798;12.174;2023-05-16T05:57:46;5.50;;;4.70;;
2698;SDS011;1359;51.798;12.174;2023-05-16T06:00:12;8.13;;;4.00;;
2698;SDS011;1359;51.798;12.174;2023-05-16T06:02:37;4.93;;;3.87;;
2698;SDS011;1359;51.798;12.174;2023-05-16T06:05:03;4.13;;;3.50;;
2698;SDS011;1359;51.798;12.174;2023-05-16T06:07:29;5.70;;;5.07;;
2698;SDS011;1359;51.798;12.174;2023-05-16T06:09:54;5.63;;;3.80;;
2698;SDS011;1359;51.798;12.174;2023-05-16T06:12:20;12.60;;;5.03;;
2698;SDS011;1359;51.798;12.174;2023-05-16T06:14:45;10.80;;;4.90;;
2698;SDS011;1359;51.798;12.174;2023-05-16T06:17:10;5.93;;;4.73;;
2698;SDS011;1359;51.798;12.174;2023-05-16T06:19:36;7.03;;;3.50;;
2698;SDS011;1359;51.798;12.174;2023-05-16T06:22:01;5.80;;;3.97;;
2698;SDS011;1359;51.798;12.174;2023-05-16T06:24:27;8.33;;;4.80;;
2698;SDS011;1359;51.798;12.174;2023-05-16T06:26:54;6.10;;;3.87;;
2698;SDS011;1359;51.798;12.174;2023-05-16T06:29:19;4.73;;;4.33;;
2698;SDS011;1359;51.798;12.174;2023-05-16T06:31:44;7.30;;;5.23;;
2698;SDS011;1359;51.798;12.174;2023-05-16T06:34:11;5.37;;;4.97;;
2698;SDS011;1359;51.798;12.174;2023-05-16T06:36:36;7.43;;;4.40;;
2698;SDS011;1359;51.798;12.174;2023-05-16T06:39:02;5.23;;;4.83;;
2698;SDS011;1359;51.798;12.174;2023-05-16T06:41:27;5.43;;;4.00;;
2698;SDS011;1359;51.798;12.174;2023-05-16T06:43:52;6.53;;;4.90;;
2698;SDS011;1359;51.798;12.174;2023-05-16T06:46:18;3.70;;;3.20;;
2698;SDS011;1359;51.798;12.174;2023-05-16T06:48:43;5.27;;;4.20;;
2698;SDS011;1359;51.798;12.174;2023-05-16T06:51:09;4.00;;;3.40;;
2698;SDS011;1359;51.798;12.174;2023-05-16T06:53:34;6.00;;;4.37;;
2698;SDS011;1359;51.798;12.174;2023-05-16T06:56:00;4.70;;;4.00;;
2698;SDS011;1359;51.798;12.174;2023-05-16T06:58:26;8.27;;;4.70;;
2698;SDS011;1359;51.798;12.174;2023-05-16T07:00:51;4.97;;;3.97;;
2698;SDS011;1359;51.798;12.174;2023-05-16T07:03:17;4.37;;;3.97;;
2698;SDS011;1359;51.798;12.174;2023-05-16T07:05:42;5.60;;;3.60;;
2698;SDS011;1359;51.798;12.174;2023-05-16T07:08:08;4.43;;;3.67;;
2698;SDS011;1359;51.798;12.174;2023-05-16T07:10:34;5.00;;;3.70;;
2698;SDS011;1359;51.798;12.174;2023-05-16T07:13:00;4.63;;;3.33;;
2698;SDS011;1359;51.798;12.174;2023-05-16T07:15:26;3.87;;;3.30;;
2698;SDS011;1359;51.798;12.174;2023-05-16T07:17:51;3.83;;;3.53;;
2698;SDS011;1359;51.798;12.174;2023-05-16T07:20:16;6.10;;;3.40;;
2698;SDS011;1359;51.798;12.174;2023-05-16T07:22:42;3.90;;;3.23;;
2698;SDS011;1359;51.798;12.174;2023-05-16T07:25:07;3.77;;;3.37;;
2698;SDS011;1359;51.798;12.174;2023-05-16T07:27:37;3.90;;;2.97;;
2698;SDS011;1359;51.798;12.174;2023-05-16T07:30:03;3.30;;;2.80;;
2698;SDS011;1359;51.798;12.174;2023-05-16T07:32:28;5.73;;;3.70;;
2698;SDS011;1359;51.798;12.174;2023-05-16T07:34:53;3.60;;;2.77;;
2698;SDS011;1359;51.798;12.174;2023-05-16T07:37:19;3.27;;;2.93;;
2698;SDS011;1359;51.798;12.174;2023-05-16T07:39:44;5.33;;;3.77;;
2698;SDS011;1359;51.798;12.174;2023-05-16T07:42:10;3.73;;;2.83;;
2698;SDS011;1359;51.798;12.174;2023-05-16T07:44:35;3.33;;;3.03;;
2698;SDS011;1359;51.798;12.174;2023-05-16T07:47:01;8.30;;;3.20;;
2698;SDS011;1359;51.798;12.174;2023-05-16T07:49:26;6.03;;;3.60;;
2698;SDS011;1359;51.798;12.174;2023-05-16T07:51:51;4.10;;;3.33;;
2698;SDS011;1359;51.798;12.174;2023-05-16T07:54:17;3.60;;;3.00;;
2698;SDS011;1359;51.798;12.174;2023-05-16T07:56:42;4.53;;;2.97;;
2698;SDS011;1359;51.798;12.174;2023-05-16T07:59:08;3.23;;;2.80;;
2698;SDS011;1359;51.798;12.174;2023-05-16T08:01:33;4.20;;;2.77;;
2698;SDS011;1359;51.798;12.174;2023-05-16T08:03:59;4.73;;;3.20;;
2698;SDS011;1359;51.798;12.174;2023-05-16T08:06:24;3.50;;;3.17;;
2698;SDS011;1359;51.798;12.174;2023-05-16T08:08:50;5.27;;;3.13;;
2698;SDS011;1359;51.798;12.174;2023-05-16T08:11:16;4.30;;;3.40;;
2698;SDS011;1359;51.798;12.174;2023-05-16T08:13:42;5.63;;;3.37;;
2698;SDS011;1359;51.798;12.174;2023-05-16T08:16:07;4.87;;;3.43;;
2698;SDS011;1359;51.798;12.174;2023-05-16T08:18:33;5.57;;;2.80;;
2698;SDS011;1359;51.798;12.174;2023-05-16T08:20:58;6.17;;;3.13;;
2698;SDS011;1359;51.798;12.174;2023-05-16T08:23:23;4.13;;;3.10;;
2698;SDS011;1359;51.798;12.174;2023-05-16T08:25:49;3.90;;;3.50;;
2698;SDS011;1359;51.798;12.174;2023-05-16T08:28:14;7.67;;;3.40;;
2698;SDS011;1359;51.798;12.174;2023-05-16T08:30:39;4.47;;;3.83;;
2698;SDS011;1359;51.798;12.174;2023-05-16T08:33:05;3.00;;;2.70;;
2698;SDS011;1359;51.798;12.174;2023-05-16T08:35:30;4.00;;;2.40;;
2698;SDS011;1359;51.798;12.174;2023-05-16T08:37:56;3.57;;;2.50;;
2698;SDS011;1359;51.798;12.174;2023-05-16T08:40:23;2.57;;;2.37;;
2698;SDS011;1359;51.798;12.174;2023-05-16T08:42:50;4.63;;;2.40;;
2698;SDS011;1359;51.798;12.174;2023-05-16T08:45:15;2.63;;;2.20;;
2698;SDS011;1359;51.798;12.174;2023-05-16T08:47:41;4.53;;;2.97;;
2698;SDS011;1359;51.798;12.174;2023-05-16T08:50:08;4.07;;;2.30;;
2698;SDS011;1359;51.798;12.174;2023-05-16T08:52:34;3.30;;;3.00;;
2698;SDS011;1359;51.798;12.174;2023-05-16T08:55:02;6.20;;;2.37;;
2698;SDS011;1359;51.798;12.174;2023-05-16T08:57:30;3.90;;;2.67;;
2698;SDS011;1359;51.798;12.174;2023-05-16T08:59:56;4.10;;;2.50;;
2698;SDS011;1359;51.798;12.174;2023-05-16T09:02:22;5.07;;;2.80;;
2698;SDS011;1359;51.798;12.174;2023-05-16T09:04:48;3.70;;;2.30;;
2698;SDS011;1359;51.798;12.174;2023-05-16T09:07:13;6.30;;;2.80;;
2698;SDS011;1359;51.798;12.174;2023-05-16T09:09:39;6.37;;;2.50;;
2698;SDS011;1359;51.798;12.174;2023-05-16T09:12:04;3.27;;;2.50;;
2698;SDS011;1359;51.798;12.174;2023-05-16T09:14:30;3.83;;;2.67;;
2698;SDS011;1359;51.798;12.174;2023-05-16T09:17:02;4.10;;;2.80;;
2698;SDS011;1359;51.798;12.174;2023-05-16T09:19:31;3.50;;;2.10;;
2698;SDS011;1359;51.798;12.174;2023-05-16T09:21:57;3.30;;;1.97;;
2698;SDS011;1359;51.798;12.174;2023-05-16T09:24:22;3.70;;;2.27;;
2698;SDS011;1359;51.798;12.174;2023-05-16T09:26:49;3.30;;;2.40;;
2698;SDS011;1359;51.798;12.174;2023-05-16T09:29:15;7.93;;;4.47;;
2698;SDS011;1359;51.798;12.174;2023-05-16T09:31:40;10.80;;;4.13;;
2698;SDS011;1359;51.798;12.174;2023-05-16T09:34:06;7.03;;;3.80;;
2698;SDS011;1359;51.798;12.174;2023-05-16T09:36:32;10.27;;;3.00;;
2698;SDS011;1359;51.798;12.174;2023-05-16T09:38:57;11.70;;;3.83;;
2698;SDS011;1359;51.798;12.174;2023-05-16T09:41:23;11.23;;;3.50;;
2698;SDS011;1359;51.798;12.174;2023-05-16T09:43:48;4.47;;;2.80;;
2698;SDS011;1359;51.798;12.174;2023-05-16T09:46:14;7.10;;;3.50;;
2698;SDS011;1359;51.798;12.174;2023-05-16T09:48:40;8.10;;;3.30;;
2698;SDS011;1359;51.798;12.174;2023-05-16T09:51:06;7.40;;;3.30;;
2698;SDS011;1359;51.798;12.174;2023-05-16T09:53:32;11.50;;;3.33;;
2698;SDS011;1359;51.798;12.174;2023-05-16T09:56:04;9.20;;;3.40;;
2698;SDS011;1359;51.798;12.174;2023-05-16T09:58:32;7.30;;;3.20;;
2698;SDS011;1359;51.798;12.174;2023-05-16T10:00:58;5.03;;;2.80;;
2698;SDS011;1359;51.798;12.174;2023-05-16T10:03:24;4.87;;;2.50;;
2698;SDS011;1359;51.798;12.174;2023-05-16T10:05:49;3.40;;;2.73;;
2698;SDS011;1359;51.798;12.174;2023-05-16T10:08:18;3.80;;;2.70;;
2698;SDS011;1359;51.798;12.174;2023-05-16T10:10:44;3.33;;;2.63;;
2698;SDS011;1359;51.798;12.174;2023-05-16T10:13:11;12.60;;;3.60;;
2698;SDS011;1359;51.798;12.174;2023-05-16T10:15:37;10.47;;;3.63;;
2698;SDS011;1359;51.798;12.174;2023-05-16T10:18:03;9.03;;;2.83;;
2698;SDS011;1359;51.798;12.174;2023-05-16T10:20:32;5.60;;;3.13;;
2698;SDS011;1359;51.798;12.174;2023-05-16T10:22:57;7.57;;;3.43;;
2698;SDS011;1359;51.798;12.174;2023-05-16T10:25:31;8.30;;;3.63;;
2698;SDS011;1359;51.798;12.174;2023-05-16T10:27:56;7.67;;;3.30;;
2698;SDS011;1359;51.798;12.174;2023-05-16T10:30:22;4.80;;;2.50;;
2698;SDS011;1359;51.798;12.174;2023-05-16T10:32:47;12.23;;;3.60;;
2698;SDS011;1359;51.798;12.174;2023-05-16T10:35:14;10.63;;;3.10;;
2698;SDS011;1359;51.798;12.174;2023-05-16T10:37:40;6.77;;;2.63;;
2698;SDS011;1359;51.798;12.174;2023-05-16T10:40:06;4.70;;;3.10;;
2698;SDS011;1359;51.798;12.174;2023-05-16T10:42:32;8.37;;;4.70;;
2698;SDS011;1359;51.798;12.174;2023-05-16T10:50:29;5.93;;;2.60;;
2698;SDS011;1359;51.798;12.174;2023-05-16T10:52:54;4.60;;;3.10;;
2698;SDS011;1359;51.798;12.174;2023-05-16T10:55:20;7.50;;;2.23;;
2698;SDS011;1359;51.798;12.174;2023-05-16T10:57:46;7.13;;;2.73;;
2698;SDS011;1359;51.798;12.174;2023-05-16T11:00:13;5.60;;;2.70;;
2698;SDS011;1359;51.798;12.174;2023-05-16T11:02:46;6.43;;;2.77;;
2698;SDS011;1359;51.798;12.174;2023-05-16T11:05:12;6.13;;;2.40;;
2698;SDS011;1359;51.798;12.174;2023-05-16T11:07:37;5.17;;;2.47;;
2698;SDS011;1359;51.798;12.174;2023-05-16T11:15:01;7.13;;;2.63;;
2698;SDS011;1359;51.798;12.174;2023-05-16T11:17:41;10.07;;;3.40;;
2698;SDS011;1359;51.798;12.174;2023-05-16T11:20:07;8.00;;;3.03;;
2698;SDS011;1359;51.798;12.174;2023-05-16T11:22:48;10.37;;;3.53;;
2698;SDS011;1359;51.798;12.174;2023-05-16T11:25:13;9.20;;;2.43;;
2698;SDS011;1359;51.798;12.174;2023-05-16T11:27:45;7.10;;;3.23;;
2698;SDS011;1359;51.798;12.174;2023-05-16T11:30:12;7.97;;;2.97;;
2698;SDS011;1359;51.798;12.174;2023-05-16T11:32:41;6.47;;;3.00;;
2698;SDS011;1359;51.798;12.174;2023-05-16T11:35:07;8.77;;;3.33;;
2698;SDS011;1359;51.798;12.174;2023-05-16T11:37:33;7.10;;;2.80;;
2698;SDS011;1359;51.798;12.174;2023-05-16T11:40:01;17.60;;;3.17;;
2698;SDS011;1359;51.798;12.174;2023-05-16T11:42:30;8.47;;;2.90;;
2698;SDS011;1359;51.798;12.174;2023-05-16T11:45:29;10.63;;;3.60;;
2698;SDS011;1359;51.798;12.174;2023-05-16T11:47:49;14.60;;;3.63;;
2698;SDS011;1359;51.798;12.174;2023-05-16T11:50:15;9.83;;;2.70;;
2698;SDS011;1359;51.798;12.174;2023-05-16T11:52:44;25.43;;;3.60;;
2698;SDS011;1359;51.798;12.174;2023-05-16T11:55:10;8.10;;;2.50;;
2698;SDS011;1359;51.798;12.174;2023-05-16T11:57:39;8.03;;;2.50;;
2698;SDS011;1359;51.798;12.174;2023-05-16T12:00:17;7.30;;;2.50;;
2698;SDS011;1359;51.798;12.174;2023-05-16T12:02:44;7.63;;;2.87;;
2698;SDS011;1359;51.798;12.174;2023-05-16T12:05:11;8.83;;;2.47;;
2698;SDS011;1359;51.798;12.174;2023-05-16T12:07:37;5.00;;;2.20;;
2698;SDS011;1359;51.798;12.174;2023-05-16T12:10:05;10.40;;;2.63;;
2698;SDS011;1359;51.798;12.174;2023-05-16T12:12:32;7.90;;;3.27;;
2698;SDS011;1359;51.798;12.174;2023-05-16T12:14:57;4.63;;;2.80;;
2698;SDS011;1359;51.798;12.174;2023-05-16T12:17:23;4.63;;;3.90;;
2698;SDS011;1359;51.798;12.174;2023-05-16T12:19:48;5.00;;;2.37;;
2698;SDS011;1359;51.798;12.174;2023-05-16T12:22:15;4.43;;;2.53;;
2698;SDS011;1359;51.798;12.174;2023-05-16T12:24:40;5.97;;;2.90;;
2698;SDS011;1359;51.798;12.174;2023-05-16T12:27:06;6.43;;;2.70;;
2698;SDS011;1359;51.798;12.174;2023-05-16T12:29:32;7.07;;;3.60;;
2698;SDS011;1359;51.798;12.174;2023-05-16T12:31:57;5.80;;;2.37;;
2698;SDS011;1359;51.798;12.174;2023-05-16T12:34:27;11.87;;;2.87;;
2698;SDS011;1359;51.798;12.174;2023-05-16T12:36:52;9.77;;;2.87;;
2698;SDS011;1359;51.798;12.174;2023-05-16T12:39:18;5.50;;;2.50;;
2698;SDS011;1359;51.798;12.174;2023-05-16T12:41:44;5.90;;;2.60;;
2698;SDS011;1359;51.798;12.174;2023-05-16T12:44:10;4.73;;;2.30;;
2698;SDS011;1359;51.798;12.174;2023-05-16T12:46:41;6.60;;;3.03;;
2698;SDS011;1359;51.798;12.174;2023-05-16T12:49:06;5.10;;;2.30;;
2698;SDS011;1359;51.798;12.174;2023-05-16T12:51:32;4.03;;;2.23;;
2698;SDS011;1359;51.798;12.174;2023-05-16T12:54:05;4.67;;;2.33;;
2698;SDS011;1359;51.798;12.174;2023-05-16T12:56:39;6.17;;;2.30;;
2698;SDS011;1359;51.798;12.174;2023-05-16T12:59:05;6.10;;;2.47;;
2698;SDS011;1359;51.798;12.174;2023-05-16T13:01:31;4.30;;;1.90;;
2698;SDS011;1359;51.798;12.174;2023-05-16T13:03:56;3.10;;;2.30;;
2698;SDS011;1359;51.798;12.174;2023-05-16T13:06:22;5.53;;;2.80;;
2698;SDS011;1359;51.798;12.174;2023-05-16T13:08:47;6.60;;;3.23;;
2698;SDS011;1359;51.798;12.174;2023-05-16T13:11:12;4.50;;;2.30;;
2698;SDS011;1359;51.798;12.174;2023-05-16T13:13:38;8.77;;;2.10;;
2698;SDS011;1359;51.798;12.174;2023-05-16T13:16:03;3.83;;;2.20;;
2698;SDS011;1359;51.798;12.174;2023-05-16T13:18:29;9.63;;;2.50;;
2698;SDS011;1359;51.798;12.174;2023-05-16T13:20:55;11.27;;;3.70;;
2698;SDS011;1359;51.798;12.174;2023-05-16T13:23:20;4.03;;;2.40;;
2698;SDS011;1359;51.798;12.174;2023-05-16T13:25:46;5.40;;;2.50;;
2698;SDS011;1359;51.798;12.174;2023-05-16T13:28:11;7.13;;;2.23;;
2698;SDS011;1359;51.798;12.174;2023-05-16T13:30:37;4.60;;;2.20;;
2698;SDS011;1359;51.798;12.174;2023-05-16T13:33:02;6.03;;;2.90;;
2698;SDS011;1359;51.798;12.174;2023-05-16T13:35:27;7.03;;;2.00;;
2698;SDS011;1359;51.798;12.174;2023-05-16T13:37:53;6.50;;;2.40;;
2698;SDS011;1359;51.798;12.174;2023-05-16T13:40:18;4.97;;;2.57;;
2698;SDS011;1359;51.798;12.174;2023-05-16T13:42:44;10.27;;;2.73;;
2698;SDS011;1359;51.798;12.174;2023-05-16T13:45:09;8.80;;;2.37;;
2698;SDS011;1359;51.798;12.174;2023-05-16T13:47:34;8.63;;;2.30;;
2698;SDS011;1359;51.798;12.174;2023-05-16T13:50:00;5.40;;;2.27;;
2698;SDS011;1359;51.798;12.174;2023-05-16T13:52:30;3.70;;;2.10;;
2698;SDS011;1359;51.798;12.174;2023-05-16T13:54:56;5.77;;;2.37;;
2698;SDS011;1359;51.798;12.174;2023-05-16T13:57:21;3.33;;;2.33;;
2698;SDS011;1359;51.798;12.174;2023-05-16T13:59:47;11.10;;;2.50;;
2698;SDS011;1359;51.798;12.174;2023-05-16T14:02:12;5.70;;;2.00;;
2698;SDS011;1359;51.798;12.174;2023-05-16T14:04:38;2.83;;;1.70;;
2698;SDS011;1359;51.798;12.174;2023-05-16T14:07:03;4.47;;;2.60;;
2698;SDS011;1359;51.798;12.174;2023-05-16T14:09:28;3.97;;;2.00;;
2698;SDS011;1359;51.798;12.174;2023-05-16T14:11:54;3.53;;;1.37;;
2698;SDS011;1359;51.798;12.174;2023-05-16T14:14:19;4.63;;;2.00;;
2698;SDS011;1359;51.798;12.174;2023-05-16T14:16:45;7.20;;;1.67;;
2698;SDS011;1359;51.798;12.174;2023-05-16T14:19:11;8.37;;;2.70;;
2698;SDS011;1359;51.798;12.174;2023-05-16T14:21:37;4.60;;;1.80;;
2698;SDS011;1359;51.798;12.174;2023-05-16T14:24:02;3.50;;;1.70;;
2698;SDS011;1359;51.798;12.174;2023-05-16T14:26:28;2.23;;;1.57;;
2698;SDS011;1359;51.798;12.174;2023-05-16T14:28:53;4.33;;;2.00;;
2698;SDS011;1359;51.798;12.174;2023-05-16T14:31:20;6.37;;;2.03;;
2698;SDS011;1359;51.798;12.174;2023-05-16T14:33:45;4.33;;;1.87;;
2698;SDS011;1359;51.798;12.174;2023-05-16T14:36:11;6.27;;;1.60;;
2698;SDS011;1359;51.798;12.174;2023-05-16T14:38:37;6.20;;;2.00;;
2698;SDS011;1359;51.798;12.174;2023-05-16T14:41:02;2.63;;;1.67;;
2698;SDS011;1359;51.798;12.174;2023-05-16T14:43:28;8.30;;;2.43;;
2698;SDS011;1359;51.798;12.174;2023-05-16T14:45:53;3.67;;;1.97;;
2698;SDS011;1359;51.798;12.174;2023-05-16T14:48:18;2.33;;;1.73;;
2698;SDS011;1359;51.798;12.174;2023-05-16T14:50:44;5.87;;;1.47;;
2698;SDS011;1359;51.798;12.174;2023-05-16T14:53:10;3.13;;;1.83;;
2698;SDS011;1359;51.798;12.174;2023-05-16T14:55:35;3.73;;;1.87;;
2698;SDS011;1359;51.798;12.174;2023-05-16T14:58:00;3.20;;;1.90;;
2698;SDS011;1359;51.798;12.174;2023-05-16T15:00:26;4.23;;;1.90;;
2698;SDS011;1359;51.798;12.174;2023-05-16T15:02:51;3.00;;;2.03;;
2698;SDS011;1359;51.798;12.174;2023-05-16T15:05:17;5.53;;;1.70;;